ETHF

Fritzlar Airport

Fritzlar, Germany
METAR ETHF 250020Z 22003KT 9999 BKN110 12/08 Q1010 BLU
Observed Flight Rules
Apr-25 @ 00:20 UTC (24 minutes ago) Visual Flight Rules
Wind Visibility Clouds
220° at 3 knots 10,000+ meters
  • Broken at 11,000' AGL
Temperatures Readings
Current 12°C / 54°F
Dewpoint 8°C / 46°F
Humidity 77%
Altimeter 29.82" Hg
Pressure 1010 hPa
Elevation 181
METAR ETHF 250020Z 22003KT 9999 BKN110 12/08 Q1010 BLU
Observed Flight Rules
Apr-25 @ 00:20 UTC
(24 minutes ago)
VFR
Wind Visibility
220° at 3 knots 10,000+ meters
Clouds
  • Broken at 11,000' AGL
Temperature Dewpoint
12°C / 54°F 8°C / 46°F
Humidity Altimeter Pressure
77% 29.82" Hg 1010 hPa